Time;durP1;ratioP1;P1;durP2;ratioP2;P2;SDS_P1;SDS_P2;PMS_P1;PMS_P2;Temp;Humidity;BMP_temperature;BMP_pressure;BME280_temperature;BME280_humidity;BME280_pressure;Samples;Min_cycle;Max_cycle;Signal;HPM_P1;HPM_P2
2022/11/28 00:00:59;;;;;;;5.88;3.22;;;;;;;;;;5023315;28;20063;-42
2022/11/28 00:03:25;;;;;;;6.85;3.67;;;;;;;;;;5020087;28;20432;-42
2022/11/28 00:05:51;;;;;;;4.47;3.17;;;;;;;;;;5026156;28;20025;-42
2022/11/28 00:08:17;;;;;;;5.45;3.08;;;;;;;;;;5023806;28;20033;-42
2022/11/28 00:10:42;;;;;;;4.65;3.10;;;;;;;;;;5022313;28;20108;-43
2022/11/28 00:13:08;;;;;;;4.15;3.22;;;;;;;;;;5023556;28;20172;-43
2022/11/28 00:15:33;;;;;;;5.60;3.53;;;;;;;;;;5022231;28;20108;-43
2022/11/28 00:17:58;;;;;;;5.90;3.50;;;;;;;;;;5024584;28;20412;-42
2022/11/28 00:20:24;;;;;;;5.85;3.53;;;;;;;;;;5025698;28;20038;-43
2022/11/28 00:22:51;;;;;;;4.90;3.38;;;;;;;;;;5024197;28;20029;-42
2022/11/28 00:25:16;;;;;;;5.53;3.05;;;;;;;;;;5022953;28;20053;-42
2022/11/28 00:27:41;;;;;;;6.00;3.20;;;;;;;;;;5023225;28;20036;-43
2022/11/28 00:30:07;;;;;;;6.25;3.33;;;;;;;;;;5028323;28;20113;-45
2022/11/28 00:32:33;;;;;;;5.00;3.30;;;;;;;;;;5028296;28;20021;-44
2022/11/28 00:34:58;;;;;;;4.10;2.92;;;;;;;;;;5027614;28;20077;-42
2022/11/28 00:37:24;;;;;;;7.65;3.00;;;;;;;;;;5028137;28;20390;-45
2022/11/28 00:39:49;;;;;;;5.32;2.78;;;;;;;;;;5028581;28;20037;-42
2022/11/28 00:42:15;;;;;;;4.65;2.90;;;;;;;;;;5025368;28;20141;-42
2022/11/28 00:44:40;;;;;;;3.72;3.08;;;;;;;;;;5027553;28;20042;-43
2022/11/28 00:47:06;;;;;;;5.10;3.20;;;;;;;;;;5029342;28;20397;-42
2022/11/28 00:49:31;;;;;;;5.90;2.80;;;;;;;;;;5023267;28;20531;-42
2022/11/28 00:51:57;;;;;;;8.60;3.35;;;;;;;;;;5027378;28;20030;-43
2022/11/28 00:54:22;;;;;;;6.63;2.72;;;;;;;;;;5025025;28;20120;-42
2022/11/28 00:56:47;;;;;;;6.28;2.67;;;;;;;;;;5027013;28;20542;-42
2022/11/28 00:59:13;;;;;;;4.13;2.72;;;;;;;;;;5027287;28;20053;-45
2022/11/28 01:01:41;;;;;;;4.47;2.78;;;;;;;;;;5028122;28;20056;-43
2022/11/28 01:04:09;;;;;;;5.00;2.80;;;;;;;;;;5024068;28;20037;-43
2022/11/28 01:06:46;;;;;;;5.75;2.90;;;;;;;;;;5028533;28;20033;-42
2022/11/28 01:09:17;;;;;;;4.25;2.53;;;;;;;;;;5029083;28;20071;-42
2022/11/28 01:11:43;;;;;;;6.90;2.78;;;;;;;;;;5028018;28;20026;-43
2022/11/28 01:14:10;;;;;;;5.15;3.20;;;;;;;;;;5025609;28;20072;-44
2022/11/28 01:16:36;;;;;;;6.00;3.30;;;;;;;;;;5025091;28;20038;-42
2022/11/28 01:19:02;;;;;;;7.32;3.10;;;;;;;;;;5027585;28;20445;-45
2022/11/28 01:21:28;;;;;;;6.22;2.80;;;;;;;;;;5027458;28;20033;-43
2022/11/28 01:23:53;;;;;;;3.85;2.72;;;;;;;;;;5050195;28;20069;-42
2022/11/28 01:26:22;;;;;;;4.22;3.25;;;;;;;;;;5008753;28;20110;-43
2022/11/28 01:28:48;;;;;;;5.75;3.60;;;;;;;;;;5012873;28;20041;-42
2022/11/28 01:31:15;;;;;;;9.57;3.03;;;;;;;;;;5030325;28;20087;-43
2022/11/28 01:33:41;;;;;;;5.78;2.95;;;;;;;;;;5025032;28;20037;-42
2022/11/28 01:36:07;;;;;;;5.40;3.05;;;;;;;;;;5027543;28;20432;-43
2022/11/28 01:38:33;;;;;;;3.78;2.90;;;;;;;;;;5027686;28;20037;-45
2022/11/28 01:40:59;;;;;;;4.78;3.05;;;;;;;;;;5023996;28;20038;-44
2022/11/28 01:43:25;;;;;;;5.35;2.83;;;;;;;;;;5025280;28;20104;-42
2022/11/28 01:45:50;;;;;;;3.80;3.10;;;;;;;;;;5023443;28;20129;-42
2022/11/28 01:48:23;;;;;;;4.32;2.75;;;;;;;;;;5025794;28;20132;-43
2022/11/28 01:50:52;;;;;;;7.38;2.70;;;;;;;;;;5024038;28;20424;-45
2022/11/28 01:53:18;;;;;;;4.32;2.47;;;;;;;;;;5027875;28;20371;-42
2022/11/28 01:55:58;;;;;;;10.65;3.08;;;;;;;;;;5024683;28;20033;-42
2022/11/28 01:58:24;;;;;;;5.35;2.40;;;;;;;;;;5026468;28;20029;-43
2022/11/28 02:00:50;;;;;;;4.47;2.78;;;;;;;;;;5026910;28;20045;-42
2022/11/28 02:03:48;;;;;;;4.50;3.10;;;;;;;;;;5025041;28;20076;-44
2022/11/28 02:06:16;;;;;;;2.80;2.50;;;;;;;;;;5022220;28;20047;-43
2022/11/28 02:08:41;;;;;;;4.22;2.60;;;;;;;;;;5025475;28;20595;-42
2022/11/28 02:11:27;;;;;;;4.90;2.70;;;;;;;;;;5026711;28;20057;-45
2022/11/28 02:14:33;;;;;;;3.38;2.10;;;;;;;;;;5026005;28;20041;-42
2022/11/28 02:17:36;;;;;;;6.85;2.60;;;;;;;;;;4984026;28;20046;-43
2022/11/28 02:20:20;;;;;;;4.95;2.45;;;;;;;;;;4984166;28;20062;-45
2022/11/28 02:23:01;;;;;;;4.80;2.67;;;;;;;;;;4981440;28;20034;-42
2022/11/28 02:26:04;;;;;;;2.72;2.25;;;;;;;;;;4980725;28;20049;-43
2022/11/28 02:28:32;;;;;;;;;;;;;;;;;;4983253;28;20061;-41
2022/11/28 02:31:17;;;;;;;4.35;2.20;;;;;;;;;;4980079;28;19918;-42
2022/11/28 02:33:49;;;;;;;6.30;2.60;;;;;;;;;;4986135;28;20157;-42
2022/11/28 02:36:34;;;;;;;2.92;2.05;;;;;;;;;;4978605;28;20035;-42
2022/11/28 02:39:05;;;;;;;2.47;2.22;;;;;;;;;;4983186;28;20096;-42
2022/11/28 02:41:43;;;;;;;3.78;2.67;;;;;;;;;;4984092;28;20030;-44
2022/11/28 02:44:16;;;;;;;4.97;2.70;;;;;;;;;;4982691;28;20038;-42
2022/11/28 02:46:47;;;;;;;6.40;2.50;;;;;;;;;;4984101;28;20137;-42
2022/11/28 02:49:22;;;;;;;3.80;2.72;;;;;;;;;;4979798;28;20046;-44
2022/11/28 02:51:54;;;;;;;5.22;2.78;;;;;;;;;;4985109;28;20545;-42
2022/11/28 02:54:22;;;;;;;2.97;2.13;;;;;;;;;;5017618;28;20051;-42
2022/11/28 02:56:53;;;;;;;2.70;2.15;;;;;;;;;;5021588;28;20038;-42
2022/11/28 02:59:31;;;;;;;6.55;2.70;;;;;;;;;;5025378;28;20096;-42
2022/11/28 03:01:57;;;;;;;2.30;2.10;;;;;;;;;;5023785;28;20096;-42
2022/11/28 03:04:43;;;;;;;4.22;2.40;;;;;;;;;;5022721;28;20569;-43
2022/11/28 03:07:09;;;;;;;5.65;2.30;;;;;;;;;;5023702;28;20080;-45
2022/11/28 03:09:57;;;;;;;3.55;2.20;;;;;;;;;;5024908;28;20833;-42
2022/11/28 03:12:31;;;;;;;2.28;2.05;;;;;;;;;;5026197;28;20033;-42
2022/11/28 03:15:03;;;;;;;4.95;2.08;;;;;;;;;;5026423;28;20049;-42
2022/11/28 03:18:07;;;;;;;3.47;2.20;;;;;;;;;;5023614;28;20036;-42
2022/11/28 03:20:47;;;;;;;3.78;2.13;;;;;;;;;;4998659;28;20092;-43
2022/11/28 03:23:17;;;;;;;3.90;2.33;;;;;;;;;;5005303;28;20032;-43
2022/11/28 03:26:09;;;;;;;3.55;2.15;;;;;;;;;;5009529;28;20036;-43
2022/11/28 03:28:39;;;;;;;4.15;1.88;;;;;;;;;;5018202;28;20099;-43
2022/11/28 03:31:23;;;;;;;2.53;1.92;;;;;;;;;;5025587;28;20075;-42
2022/11/28 03:33:55;;;;;;;5.68;2.20;;;;;;;;;;5023476;28;20576;-43
2022/11/28 03:36:26;;;;;;;7.22;1.80;;;;;;;;;;5024553;28;20030;-43
2022/11/28 03:38:59;;;;;;;1.95;1.70;;;;;;;;;;5024271;28;20045;-43
2022/11/28 03:41:56;;;;;;;3.63;1.60;;;;;;;;;;5023236;28;20429;-44
2022/11/28 03:44:27;;;;;;;5.03;2.10;;;;;;;;;;5024650;28;20092;-42
2022/11/28 03:46:56;;;;;;;1.75;1.65;;;;;;;;;;5021337;28;20717;-44
2022/11/28 03:49:46;;;;;;;3.75;1.83;;;;;;;;;;5019659;28;20128;-42
2022/11/28 03:52:35;;;;;;;7.43;2.28;;;;;;;;;;5022983;28;20037;-42
2022/11/28 03:55:06;;;;;;;3.58;2.13;;;;;;;;;;5025179;28;20057;-42
2022/11/28 03:57:34;;;;;;;8.13;1.70;;;;;;;;;;5023455;28;20032;-42
2022/11/28 04:00:04;;;;;;;5.82;2.28;;;;;;;;;;5021881;28;20060;-42
2022/11/28 04:02:37;;;;;;;3.90;1.40;;;;;;;;;;5024433;28;20036;-42
2022/11/28 04:05:26;;;;;;;1.70;1.60;;;;;;;;;;5025265;28;20102;-43
2022/11/28 04:08:03;;;;;;;7.65;1.88;;;;;;;;;;5026531;28;20041;-42
2022/11/28 04:10:37;;;;;;;3.15;1.55;;;;;;;;;;5027499;28;20520;-42
2022/11/28 04:13:19;;;;;;;2.35;1.58;;;;;;;;;;5027281;28;20505;-44
2022/11/28 04:15:48;;;;;;;;;;;;;;;;;;5006060;28;20041;-44
2022/11/28 04:18:25;;;;;;;3.28;1.77;;;;;;;;;;5007643;28;19924;-42
2022/11/28 04:21:01;;;;;;;2.55;1.73;;;;;;;;;;5026047;28;20029;-42
2022/11/28 04:23:28;;;;;;;4.53;1.88;;;;;;;;;;5027784;28;20136;-43
2022/11/28 04:26:02;;;;;;;7.72;1.85;;;;;;;;;;5027889;28;20037;-43
2022/11/28 04:28:30;;;;;;;4.25;1.80;;;;;;;;;;5025166;28;20095;-42
2022/11/28 04:31:00;;;;;;;2.90;1.45;;;;;;;;;;5028716;28;20029;-42
2022/11/28 04:33:29;;;;;;;3.10;1.52;;;;;;;;;;5024102;28;20025;-43
2022/11/28 04:35:56;;;;;;;2.30;1.60;;;;;;;;;;5027101;28;20033;-43
2022/11/28 04:38:24;;;;;;;3.80;1.58;;;;;;;;;;5025197;28;20109;-44
2022/11/28 04:40:54;;;;;;;5.32;1.70;;;;;;;;;;5028191;28;20088;-44
2022/11/28 04:43:25;;;;;;;1.75;1.55;;;;;;;;;;5027721;28;20027;-43
2022/11/28 04:46:00;;;;;;;2.05;1.85;;;;;;;;;;5026485;28;20032;-42
2022/11/28 04:48:26;;;;;;;2.85;1.70;;;;;;;;;;5027074;28;20029;-42
2022/11/28 04:51:09;;;;;;;2.28;1.60;;;;;;;;;;5027465;28;20045;-42
2022/11/28 04:53:42;;;;;;;7.78;2.63;;;;;;;;;;5025372;28;20454;-45
2022/11/28 04:56:16;;;;;;;4.90;1.98;;;;;;;;;;5024940;28;20056;-42
2022/11/28 04:58:45;;;;;;;2.45;2.05;;;;;;;;;;5026596;28;20533;-42
2022/11/28 05:01:16;;;;;;;4.38;1.88;;;;;;;;;;5027600;28;20433;-44
2022/11/28 05:03:42;;;;;;;2.90;1.85;;;;;;;;;;5023840;28;20072;-44
2022/11/28 05:06:08;;;;;;;3.72;1.60;;;;;;;;;;5026260;28;20111;-45
2022/11/28 05:08:34;;;;;;;2.67;1.88;;;;;;;;;;5025589;28;20042;-43
2022/11/28 05:10:59;;;;;;;3.15;1.52;;;;;;;;;;5027870;28;20052;-43
2022/11/28 05:13:24;;;;;;;3.67;1.75;;;;;;;;;;5025315;28;20063;-42
2022/11/28 05:15:50;;;;;;;3.13;2.08;;;;;;;;;;5026193;28;20029;-42
2022/11/28 05:18:15;;;;;;;2.85;1.60;;;;;;;;;;5023720;28;20029;-44
2022/11/28 05:20:41;;;;;;;2.53;1.70;;;;;;;;;;5026177;28;20489;-42
2022/11/28 05:23:06;;;;;;;3.20;1.80;;;;;;;;;;5026031;28;20029;-43
2022/11/28 05:25:31;;;;;;;3.35;1.77;;;;;;;;;;5026982;28;20041;-42
2022/11/28 05:27:57;;;;;;;5.80;1.85;;;;;;;;;;5026598;28;20496;-42
2022/11/28 05:30:22;;;;;;;4.93;1.65;;;;;;;;;;5028080;28;20489;-47
2022/11/28 05:32:48;;;;;;;2.47;1.60;;;;;;;;;;5027855;28;20034;-42
2022/11/28 05:35:13;;;;;;;4.93;1.65;;;;;;;;;;5028225;28;20066;-45
2022/11/28 05:37:39;;;;;;;5.45;1.77;;;;;;;;;;5026801;28;20030;-43
2022/11/28 05:40:05;;;;;;;3.10;1.50;;;;;;;;;;5025513;28;20064;-42
2022/11/28 05:42:32;;;;;;;3.13;1.90;;;;;;;;;;5026685;28;20088;-43
2022/11/28 05:44:58;;;;;;;3.35;1.70;;;;;;;;;;5026925;28;20037;-43
2022/11/28 05:47:24;;;;;;;2.42;1.50;;;;;;;;;;5023826;28;20052;-42
2022/11/28 05:49:49;;;;;;;1.83;1.65;;;;;;;;;;5012796;28;20051;-43
2022/11/28 05:52:14;;;;;;;3.92;2.13;;;;;;;;;;5003644;28;20113;-42
2022/11/28 05:54:40;;;;;;;3.60;2.20;;;;;;;;;;5015594;28;20041;-43
2022/11/28 05:57:06;;;;;;;4.63;1.80;;;;;;;;;;5025733;28;20496;-43
2022/11/28 05:59:31;;;;;;;3.92;2.00;;;;;;;;;;5012159;28;20038;-43
2022/11/28 06:01:57;;;;;;;3.53;2.15;;;;;;;;;;5006442;28;20053;-42
2022/11/28 06:04:22;;;;;;;2.75;2.33;;;;;;;;;;5008682;28;20080;-42
2022/11/28 06:06:49;;;;;;;2.38;1.80;;;;;;;;;;5005480;28;20041;-44
2022/11/28 06:09:15;;;;;;;3.00;1.85;;;;;;;;;;5015369;28;20037;-44
2022/11/28 06:11:40;;;;;;;4.45;2.10;;;;;;;;;;5021241;28;20544;-46
2022/11/28 06:14:06;;;;;;;4.00;1.70;;;;;;;;;;5021510;28;20045;-42
2022/11/28 06:16:31;;;;;;;3.95;1.90;;;;;;;;;;5019095;28;20029;-42
2022/11/28 06:19:00;;;;;;;3.15;2.10;;;;;;;;;;5020494;28;20173;-43
2022/11/28 06:21:26;;;;;;;4.00;1.83;;;;;;;;;;5020296;28;20057;-44
2022/11/28 06:23:52;;;;;;;5.03;1.90;;;;;;;;;;5025447;28;20316;-42
2022/11/28 06:26:20;;;;;;;6.22;2.08;;;;;;;;;;5027446;28;20029;-43
2022/11/28 06:28:46;;;;;;;3.72;2.05;;;;;;;;;;5015200;28;20062;-44
2022/11/28 06:31:14;;;;;;;2.83;1.83;;;;;;;;;;5000795;28;20073;-44
2022/11/28 06:33:39;;;;;;;2.67;2.22;;;;;;;;;;5007571;28;20049;-42
2022/11/28 06:36:06;;;;;;;2.55;1.75;;;;;;;;;;5023156;28;20497;-42
2022/11/28 06:38:31;;;;;;;4.22;2.10;;;;;;;;;;5024309;28;20038;-45
2022/11/28 06:41:06;;;;;;;5.40;2.15;;;;;;;;;;5019865;28;20398;-43
2022/11/28 06:43:32;;;;;;;2.22;2.03;;;;;;;;;;5019973;28;20956;-42
2022/11/28 06:45:58;;;;;;;3.83;2.17;;;;;;;;;;5023008;28;20124;-43
2022/11/28 06:48:23;;;;;;;4.05;2.58;;;;;;;;;;5022254;28;20029;-43
2022/11/28 06:50:50;;;;;;;8.05;2.70;;;;;;;;;;4997432;28;20486;-42
2022/11/28 06:53:16;;;;;;;2.30;2.10;;;;;;;;;;5001874;28;20045;-43
2022/11/28 06:55:43;;;;;;;4.80;2.20;;;;;;;;;;5000811;28;20034;-44
2022/11/28 06:58:08;;;;;;;4.40;2.53;;;;;;;;;;5003474;28;20984;-40
2022/11/28 07:00:34;;;;;;;3.40;2.30;;;;;;;;;;5025021;28;20109;-42
2022/11/28 07:02:59;;;;;;;2.92;2.00;;;;;;;;;;5025352;28;20033;-43
2022/11/28 07:05:29;;;;;;;4.53;2.03;;;;;;;;;;5021307;28;20034;-42
2022/11/28 07:07:58;;;;;;;3.05;1.75;;;;;;;;;;5021431;28;20099;-42
2022/11/28 07:10:26;;;;;;;2.75;1.95;;;;;;;;;;5022727;28;20040;-44
2022/11/28 07:12:53;;;;;;;8.27;1.90;;;;;;;;;;5023637;28;20508;-47
2022/11/28 07:15:19;;;;;;;3.88;1.75;;;;;;;;;;5024933;28;20490;-42
2022/11/28 07:17:44;;;;;;;4.85;1.80;;;;;;;;;;5027115;28;20025;-41
2022/11/28 07:20:10;;;;;;;6.72;2.22;;;;;;;;;;5023959;28;20502;-44
2022/11/28 07:22:35;;;;;;;4.63;1.65;;;;;;;;;;5023332;28;20625;-45
2022/11/28 07:25:00;;;;;;;4.70;1.90;;;;;;;;;;5021613;28;20041;-42
2022/11/28 07:27:26;;;;;;;6.20;2.05;;;;;;;;;;5026530;28;20508;-42
2022/11/28 07:29:51;;;;;;;2.38;1.80;;;;;;;;;;5024380;28;20049;-42
2022/11/28 07:32:16;;;;;;;3.38;1.90;;;;;;;;;;5020791;28;20036;-42
2022/11/28 07:34:42;;;;;;;3.38;1.60;;;;;;;;;;5016380;28;20979;-42
2022/11/28 07:37:07;;;;;;;5.68;1.70;;;;;;;;;;5019010;28;20095;-43
2022/11/28 07:39:33;;;;;;;5.45;2.75;;;;;;;;;;5024010;28;20506;-41
2022/11/28 07:41:58;;;;;;;3.85;2.90;;;;;;;;;;5023686;28;20025;-44
2022/11/28 07:44:24;;;;;;;8.75;3.40;;;;;;;;;;5022080;28;20509;-43
2022/11/28 07:46:49;;;;;;;5.10;3.00;;;;;;;;;;5024299;28;20581;-42
2022/11/28 07:49:16;;;;;;;6.22;3.25;;;;;;;;;;5020475;28;20494;-45
2022/11/28 07:51:41;;;;;;;4.18;2.78;;;;;;;;;;5025811;28;20045;-41
2022/11/28 07:54:07;;;;;;;3.75;2.92;;;;;;;;;;5022213;28;20037;-44
2022/11/28 07:56:37;;;;;;;5.90;2.83;;;;;;;;;;5025488;28;20056;-42
2022/11/28 07:59:03;;;;;;;9.85;4.68;;;;;;;;;;5020792;28;20112;-42
2022/11/28 08:01:34;;;;;;;3.53;2.70;;;;;;;;;;5019159;28;20116;-42
2022/11/28 08:04:00;;;;;;;3.08;2.70;;;;;;;;;;5023371;28;20048;-43
2022/11/28 08:06:27;;;;;;;3.88;2.45;;;;;;;;;;5022289;28;20120;-43
2022/11/28 08:08:54;;;;;;;4.35;3.55;;;;;;;;;;5026058;28;20555;-42
2022/11/28 08:11:21;;;;;;;3.40;2.50;;;;;;;;;;5024051;28;20029;-42
2022/11/28 08:13:47;;;;;;;3.67;3.05;;;;;;;;;;5023684;28;20441;-42
2022/11/28 08:16:16;;;;;;;3.83;2.60;;;;;;;;;;5022367;28;20029;-42
2022/11/28 08:18:41;;;;;;;5.40;2.65;;;;;;;;;;5016904;28;20056;-42
2022/11/28 08:21:11;;;;;;;5.13;3.10;;;;;;;;;;5019933;28;20029;-42
2022/11/28 08:23:38;;;;;;;5.18;3.28;;;;;;;;;;5021801;28;20383;-43
2022/11/28 08:26:06;;;;;;;12.85;4.28;;;;;;;;;;5020279;28;20029;-44
2022/11/28 08:28:31;;;;;;;4.93;3.42;;;;;;;;;;5017832;28;20153;-43
2022/11/28 08:31:00;;;;;;;7.13;3.30;;;;;;;;;;5004564;28;20065;-42
2022/11/28 08:33:25;;;;;;;8.27;3.40;;;;;;;;;;5006660;28;20030;-42
2022/11/28 08:35:51;;;;;;;5.80;3.90;;;;;;;;;;5019801;28;20076;-43
2022/11/28 08:38:16;;;;;;;6.60;4.00;;;;;;;;;;5023456;28;20037;-42
2022/11/28 08:40:41;;;;;;;6.07;4.05;;;;;;;;;;5023511;28;20096;-43
2022/11/28 08:43:07;;;;;;;9.52;3.95;;;;;;;;;;5021169;28;20045;-36
2022/11/28 08:45:35;;;;;;;5.03;3.20;;;;;;;;;;5022037;28;20032;-45
2022/11/28 08:48:00;;;;;;;6.03;4.00;;;;;;;;;;5022398;28;20064;-42
2022/11/28 08:50:25;;;;;;;8.27;3.33;;;;;;;;;;5022447;28;20035;-43
2022/11/28 08:52:51;;;;;;;5.28;3.92;;;;;;;;;;5027446;28;20033;-42
2022/11/28 08:55:16;;;;;;;7.65;3.42;;;;;;;;;;5028362;28;20037;-42
2022/11/28 08:57:42;;;;;;;7.60;3.85;;;;;;;;;;5025031;28;20776;-43
2022/11/28 09:00:07;;;;;;;17.35;5.90;;;;;;;;;;5026213;28;20064;-42
2022/11/28 09:02:33;;;;;;;14.55;5.43;;;;;;;;;;5024459;28;20037;-42
2022/11/28 09:04:58;;;;;;;7.50;5.13;;;;;;;;;;5024688;28;20034;-43
2022/11/28 09:07:23;;;;;;;15.13;5.32;;;;;;;;;;5024824;28;20044;-43
2022/11/28 09:09:49;;;;;;;19.02;8.63;;;;;;;;;;5014395;28;20040;-43
2022/11/28 09:12:15;;;;;;;14.00;6.57;;;;;;;;;;5023597;28;20036;-45
2022/11/28 09:14:40;;;;;;;13.88;6.32;;;;;;;;;;5026365;28;20041;-43
2022/11/28 09:17:05;;;;;;;11.43;5.35;;;;;;;;;;5025419;28;20187;-43
2022/11/28 09:19:31;;;;;;;11.25;5.25;;;;;;;;;;5025543;28;20049;-42
2022/11/28 09:21:56;;;;;;;12.95;6.47;;;;;;;;;;5025218;28;20030;-42
2022/11/28 09:24:21;;;;;;;11.65;6.28;;;;;;;;;;5025020;28;20476;-42
2022/11/28 09:26:47;;;;;;;11.00;5.32;;;;;;;;;;5022106;28;20065;-44
2022/11/28 09:29:12;;;;;;;8.27;4.65;;;;;;;;;;5022555;28;20038;-43
2022/11/28 09:31:37;;;;;;;11.57;5.25;;;;;;;;;;5024248;28;20560;-43
2022/11/28 09:34:03;;;;;;;9.65;5.90;;;;;;;;;;5024822;28;20441;-43
2022/11/28 09:36:31;;;;;;;17.15;7.03;;;;;;;;;;5024835;28;20029;-42
2022/11/28 09:38:59;;;;;;;8.30;5.07;;;;;;;;;;5022326;28;20034;-42
2022/11/28 09:41:27;;;;;;;7.30;4.90;;;;;;;;;;5021991;28;20037;-43
2022/11/28 09:43:57;;;;;;;10.00;5.00;;;;;;;;;;5023537;28;20896;-45
2022/11/28 09:46:30;;;;;;;13.27;4.82;;;;;;;;;;5022771;28;20060;-45
2022/11/28 09:48:59;;;;;;;13.57;6.50;;;;;;;;;;5023941;28;20046;-42
2022/11/28 09:51:33;;;;;;;15.32;7.30;;;;;;;;;;5025662;28;20030;-43
2022/11/28 09:54:09;;;;;;;25.83;10.25;;;;;;;;;;5024107;28;20065;-43
2022/11/28 09:56:34;;;;;;;16.13;7.03;;;;;;;;;;5022531;28;20034;-44
2022/11/28 09:59:02;;;;;;;12.80;6.38;;;;;;;;;;5024940;28;20051;-42
2022/11/28 10:01:50;;;;;;;15.82;7.20;;;;;;;;;;5024120;28;20021;-42
2022/11/28 10:04:39;;;;;;;15.77;7.20;;;;;;;;;;5020255;28;20072;-44
2022/11/28 10:07:18;;;;;;;6.82;4.72;;;;;;;;;;5025415;28;20059;-42
2022/11/28 10:10:02;;;;;;;7.55;4.32;;;;;;;;;;5003230;28;20046;-43
2022/11/28 10:12:36;;;;;;;8.60;4.82;;;;;;;;;;4998953;28;20037;-42
2022/11/28 10:15:10;;;;;;;13.40;7.82;;;;;;;;;;4999022;28;20133;-42
2022/11/28 10:17:55;;;;;;;14.98;7.68;;;;;;;;;;5003241;28;20064;-44
2022/11/28 10:20:27;;;;;;;8.40;5.43;;;;;;;;;;5005168;28;20038;-43
2022/11/28 10:23:05;;;;;;;10.73;4.18;;;;;;;;;;5001465;28;20034;-43
2022/11/28 10:25:37;;;;;;;7.07;4.32;;;;;;;;;;5018730;28;20428;-43
2022/11/28 10:28:05;;;;;;;8.85;4.80;;;;;;;;;;5023042;28;20033;-42
2022/11/28 10:30:36;;;;;;;5.38;3.33;;;;;;;;;;5027067;28;20072;-43
2022/11/28 10:33:17;;;;;;;8.00;4.53;;;;;;;;;;5028040;28;20033;-42
2022/11/28 10:35:57;;;;;;;8.63;4.00;;;;;;;;;;5006083;28;20070;-42
2022/11/28 10:38:26;;;;;;;13.32;5.95;;;;;;;;;;5008187;28;20033;-45
2022/11/28 10:40:58;;;;;;;7.47;3.97;;;;;;;;;;5019873;28;20068;-42
2022/11/28 10:44:02;;;;;;;7.07;4.25;;;;;;;;;;5022810;28;20402;-43
2022/11/28 10:46:49;;;;;;;6.10;3.83;;;;;;;;;;5011558;28;20045;-44
2022/11/28 10:50:09;;;;;;;15.65;5.45;;;;;;;;;;5009515;28;20077;-45
2022/11/28 10:52:50;;;;;;;5.30;4.00;;;;;;;;;;4995771;28;20073;-42
2022/11/28 10:55:47;;;;;;;8.93;3.20;;;;;;;;;;5025144;28;20144;-45
2022/11/28 10:58:47;;;;;;;8.98;5.32;;;;;;;;;;4960962;28;20145;-43
2022/11/28 11:01:12;;;;;;;4.75;3.38;;;;;;;;;;4956312;28;20046;-45
2022/11/28 11:03:39;;;;;;;5.10;3.55;;;;;;;;;;4961639;28;20411;-43
2022/11/28 11:06:06;;;;;;;7.88;4.18;;;;;;;;;;4958244;28;20041;-42
2022/11/28 11:08:38;;;;;;;8.02;4.28;;;;;;;;;;4956935;28;20043;-42
2022/11/28 11:11:22;;;;;;;8.68;4.53;;;;;;;;;;4964160;28;20042;-42
2022/11/28 11:14:00;;;;;;;7.47;4.47;;;;;;;;;;4960898;28;20166;-42
2022/11/28 11:16:52;;;;;;;9.30;4.13;;;;;;;;;;4943340;28;20087;-42
2022/11/28 11:19:25;;;;;;;13.32;5.70;;;;;;;;;;4963112;28;20043;-42
2022/11/28 11:22:21;;;;;;;9.75;4.65;;;;;;;;;;4958057;28;20043;-43
2022/11/28 11:25:11;;;;;;;5.95;4.43;;;;;;;;;;4958158;28;20113;-43
2022/11/28 11:27:45;;;;;;;7.40;5.10;;;;;;;;;;4963501;28;20047;-44
2022/11/28 11:30:44;;;;;;;14.48;5.82;;;;;;;;;;4960683;28;20035;-42
2022/11/28 11:33:15;;;;;;;11.80;6.43;;;;;;;;;;4972307;28;20045;-43
2022/11/28 11:35:47;;;;;;;8.02;6.20;;;;;;;;;;5026131;28;20414;-43
2022/11/28 11:38:20;;;;;;;5.40;4.43;;;;;;;;;;5019126;28;20364;-43
2022/11/28 11:40:46;;;;;;;6.32;4.35;;;;;;;;;;5024190;28;20480;-43
2022/11/28 11:43:34;;;;;;;13.23;4.93;;;;;;;;;;5024692;28;20695;-42
2022/11/28 11:46:06;;;;;;;7.22;4.53;;;;;;;;;;5019406;28;20457;-42
2022/11/28 11:48:37;;;;;;;11.00;4.72;;;;;;;;;;5022649;28;20030;-44
2022/11/28 11:51:04;;;;;;;14.05;6.70;;;;;;;;;;5020830;28;20021;-43
2022/11/28 11:53:30;;;;;;;10.90;5.35;;;;;;;;;;5021561;28;20040;-43
2022/11/28 11:55:59;;;;;;;5.75;3.83;;;;;;;;;;5021244;28;20395;-42
2022/11/28 11:58:31;;;;;;;6.30;4.40;;;;;;;;;;5017888;28;20025;-42
2022/11/28 12:00:58;;;;;;;7.97;4.18;;;;;;;;;;5002640;28;20029;-43
2022/11/28 12:03:27;;;;;;;8.43;4.13;;;;;;;;;;5005563;28;20026;-43
2022/11/28 12:05:55;;;;;;;7.57;4.15;;;;;;;;;;5010901;28;20064;-43
2022/11/28 12:08:34;;;;;;;5.78;3.90;;;;;;;;;;5006520;28;20023;-43
2022/11/28 12:11:15;;;;;;;7.75;4.50;;;;;;;;;;5025608;28;20025;-43
2022/11/28 12:13:41;;;;;;;5.70;3.97;;;;;;;;;;5016508;28;20125;-43
2022/11/28 12:16:19;;;;;;;5.25;3.90;;;;;;;;;;5019735;28;20390;-44
2022/11/28 12:19:05;;;;;;;7.88;4.78;;;;;;;;;;5021971;28;20552;-44
2022/11/28 12:22:10;;;;;;;7.05;4.10;;;;;;;;;;5022241;28;20034;-44
2022/11/28 12:25:27;;;;;;;9.10;4.00;;;;;;;;;;5024060;28;20048;-44
2022/11/28 12:28:11;;;;;;;6.50;3.80;;;;;;;;;;4947734;28;20143;-43
2022/11/28 12:30:48;;;;;;;5.40;3.88;;;;;;;;;;4947432;29;20105;-45
2022/11/28 12:33:26;;;;;;;8.73;4.40;;;;;;;;;;4947207;28;20604;-43
2022/11/28 12:36:10;;;;;;;9.73;4.15;;;;;;;;;;4949128;28;20042;-46
2022/11/28 12:38:48;;;;;;;16.77;12.02;;;;;;;;;;4944648;28;20066;-45
2022/11/28 12:42:04;;;;;;;7.03;4.97;;;;;;;;;;4945087;28;20479;-44
2022/11/28 12:44:53;;;;;;;6.32;5.25;;;;;;;;;;4884067;29;20401;-43
2022/11/28 12:47:45;;;;;;;10.15;8.65;;;;;;;;;;4881635;29;20100;-44
2022/11/28 12:50:16;;;;;;;;;;;;;;;;;;4894086;29;20461;-43
2022/11/28 12:53:11;;;;;;;12.60;6.85;;;;;;;;;;4901868;29;21944;-44
2022/11/28 12:55:46;;;;;;;25.70;16.65;;;;;;;;;;4897868;29;20056;-44
2022/11/28 12:58:12;;;;;;;10.30;8.23;;;;;;;;;;4899896;29;20107;-43
2022/11/28 13:01:11;;;;;;;6.88;5.10;;;;;;;;;;4901562;29;20084;-44
2022/11/28 13:03:40;;;;;;;9.90;5.90;;;;;;;;;;4900864;28;20047;-43
2022/11/28 13:06:34;;;;;;;11.45;8.05;;;;;;;;;;4926933;29;20040;-43
2022/11/28 13:09:02;;;;;;;33.53;19.17;;;;;;;;;;4923575;29;20054;-43
2022/11/28 13:11:45;;;;;;;13.93;8.65;;;;;;;;;;4922663;29;20031;-43
2022/11/28 13:14:51;;;;;;;19.38;11.27;;;;;;;;;;4925804;29;20044;-43
2022/11/28 13:17:25;;;;;;;13.38;7.75;;;;;;;;;;4926546;29;20048;-43
2022/11/28 13:19:57;;;;;;;40.55;19.35;;;;;;;;;;4936662;28;20049;-45
2022/11/28 13:22:26;;;;;;;15.60;7.82;;;;;;;;;;4971912;28;20053;-45
2022/11/28 13:25:01;;;;;;;45.85;19.08;;;;;;;;;;4980902;28;20125;-45
2022/11/28 13:27:52;;;;;;;15.90;6.95;;;;;;;;;;4984877;28;20045;-45
2022/11/28 13:30:24;;;;;;;68.15;28.30;;;;;;;;;;4986203;28;20135;-43
2022/11/28 13:33:29;;;;;;;7.72;5.35;;;;;;;;;;4978786;28;20453;-44
2022/11/28 13:35:58;;;;;;;8.50;4.32;;;;;;;;;;4975807;28;20046;-44
2022/11/28 13:38:26;;;;;;;8.60;3.85;;;;;;;;;;4983335;28;20613;-43
2022/11/28 13:41:07;;;;;;;10.70;5.63;;;;;;;;;;4995425;28;20037;-43
2022/11/28 13:43:44;;;;;;;39.28;12.70;;;;;;;;;;5010018;28;20041;-46
2022/11/28 13:46:10;;;;;;;14.13;5.35;;;;;;;;;;5022508;28;20052;-43
2022/11/28 13:48:35;;;;;;;5.65;4.00;;;;;;;;;;5022700;28;20041;-44
2022/11/28 13:51:13;;;;;;;24.90;11.10;;;;;;;;;;5019119;28;20068;-43
2022/11/28 13:53:39;;;;;;;13.15;6.85;;;;;;;;;;5025192;28;20038;-45
2022/11/28 13:56:05;;;;;;;24.33;9.18;;;;;;;;;;5025980;28;20083;-43
2022/11/28 13:58:39;;;;;;;9.05;4.72;;;;;;;;;;5019375;28;20049;-43
2022/11/28 14:01:09;;;;;;;4.32;3.30;;;;;;;;;;5023877;28;20437;-43
2022/11/28 14:03:46;;;;;;;6.47;3.97;;;;;;;;;;5026710;28;20045;-44
2022/11/28 14:06:16;;;;;;;17.45;8.23;;;;;;;;;;5024470;28;20022;-45
2022/11/28 14:08:43;;;;;;;5.90;3.75;;;;;;;;;;5022489;28;20080;-43
2022/11/28 14:11:30;;;;;;;6.70;3.58;;;;;;;;;;5027450;28;20116;-43
2022/11/28 14:14:41;;;;;;;8.57;3.70;;;;;;;;;;5023265;28;20458;-42
2022/11/28 14:17:15;;;;;;;18.83;8.68;;;;;;;;;;4962526;28;20035;-44
2022/11/28 14:20:10;;;;;;;17.52;10.15;;;;;;;;;;4957317;28;20405;-43
2022/11/28 14:22:59;;;;;;;9.70;4.43;;;;;;;;;;4963250;28;20408;-45
2022/11/28 14:25:30;;;;;;;4.40;3.22;;;;;;;;;;4938551;28;20042;-43
2022/11/28 14:28:01;;;;;;;7.70;3.13;;;;;;;;;;4944720;28;20046;-42
2022/11/28 14:30:32;;;;;;;4.88;3.35;;;;;;;;;;4944017;29;20142;-44
2022/11/28 14:33:01;;;;;;;13.02;4.88;;;;;;;;;;4941448;29;20039;-43
2022/11/28 14:35:48;;;;;;;14.88;8.85;;;;;;;;;;4961975;28;20054;-49
2022/11/28 14:38:29;;;;;;;7.63;4.32;;;;;;;;;;4959977;28;20035;-42
2022/11/28 14:40:57;;;;;;;8.82;5.63;;;;;;;;;;4962165;28;20046;-43
2022/11/28 14:43:23;;;;;;;8.90;4.25;;;;;;;;;;4963819;28;20598;-43
2022/11/28 14:45:49;;;;;;;9.23;6.05;;;;;;;;;;4958458;28;20070;-42
2022/11/28 14:48:18;;;;;;;10.55;7.18;;;;;;;;;;5000413;28;20128;-42
2022/11/28 14:50:51;;;;;;;5.95;4.20;;;;;;;;;;5023136;28;20029;-45
2022/11/28 14:53:41;;;;;;;12.80;7.05;;;;;;;;;;5023912;28;20018;-42
2022/11/28 14:56:12;;;;;;;8.93;5.05;;;;;;;;;;5025406;28;20026;-43
2022/11/28 14:58:38;;;;;;;14.27;7.53;;;;;;;;;;5020372;28;20509;-45
2022/11/28 15:01:10;;;;;;;13.80;8.20;;;;;;;;;;5024583;28;20017;-42
2022/11/28 15:03:42;;;;;;;8.68;6.03;;;;;;;;;;5018358;28;20033;-43
2022/11/28 15:06:18;;;;;;;21.70;14.15;;;;;;;;;;5017606;28;20431;-42
2022/11/28 15:09:05;;;;;;;24.17;15.95;;;;;;;;;;5014777;28;20133;-42
2022/11/28 15:11:46;;;;;;;49.15;33.80;;;;;;;;;;5002590;28;20029;-42